首页
METAR-TAF:

METAR-TAF

机场 :

西雅圖 / 塔科马, 华盛顿, 美国

西雅圖-塔科馬國際機場

纬度: 47-26-41N, 经度: 122-18-49W, 海拔: 130米

当前天气观测

该预报发布于35分钟前的23:12 UTC
风速7节,风向西
温度 7°C
湿度 93%
气压 1008 hPa
能見度: 8.0公里
多云层高于2800英尺
阴天层高于3300英尺
小雨, 轻雾

METAR: KSEA 182312Z 27007KT 5SM -RA BR BKN028 OVC033 07/06 A2976 RMK AO2 P0002 T00670056

时间: 15:47 (23:47 UTC)

预报

该预报发布于27分钟前的23:20 UTC
预报有效从19日的 00点(UTC)到 20日的 06点(UTC)
风速12节,风向南转西南
能見度: 10公里
多云层高于4000英尺
多云层高于8000英尺
小阵雨
从 19日的 0600点(UTC)
风速10节,风向
能見度: 10公里
多云层高于4000英尺
多云层高于8000英尺
附近有阵雨
从 19日的 1700点(UTC)
风速6节,风向
能見度: 10公里
散云层高于5000英尺
散云层高于10000英尺

TAF: KSEA 182320Z 1900/2006 21012KT P6SM -SHRA BKN040 BKN080 FM190600 18010KT P6SM VCSH BKN040 BKN080 FM191700 18006KT P6SM SCT050 SCT100

超过4000个机场的气象观测和天气预报(METAR&TAF报告)。

可查询的气象台以黄色和红色小点在地图上表示。

将鼠标移到小点上方,可查看气象台名称。

然后点击查看天气观测和预报。

如需切换地图:点击带黑十字的绿色按钮放大地图;点击带横线的绿色按钮缩小地图;或者点击绿色箭头查看邻近地区的地图。


METAR-TAF: